sensor_id;sensor_type;location;lat;lon;timestamp;P1;durP1;ratioP1;P2;durP2;ratioP2
66429;SDS011;53242;51.694;10.006;2022-10-31T00:01:23;8.98;;;3.63;;
66429;SDS011;53242;51.694;10.006;2022-10-31T00:03:48;8.00;;;3.08;;
66429;SDS011;53242;51.694;10.006;2022-10-31T00:06:10;7.68;;;2.95;;
66429;SDS011;53242;51.694;10.006;2022-10-31T00:08:33;9.02;;;3.00;;
66429;SDS011;53242;51.694;10.006;2022-10-31T00:10:56;8.63;;;3.03;;
66429;SDS011;53242;51.694;10.006;2022-10-31T00:13:18;9.48;;;2.65;;
66429;SDS011;53242;51.694;10.006;2022-10-31T00:15:41;8.27;;;3.13;;
66429;SDS011;53242;51.694;10.006;2022-10-31T00:18:03;8.20;;;3.10;;
66429;SDS011;53242;51.694;10.006;2022-10-31T00:20:27;10.75;;;3.53;;
66429;SDS011;53242;51.694;10.006;2022-10-31T00:22:49;11.05;;;3.50;;
66429;SDS011;53242;51.694;10.006;2022-10-31T00:25:12;8.73;;;3.13;;
66429;SDS011;53242;51.694;10.006;2022-10-31T00:27:34;11.32;;;3.45;;
66429;SDS011;53242;51.694;10.006;2022-10-31T00:29:57;8.18;;;3.13;;
66429;SDS011;53242;51.694;10.006;2022-10-31T00:32:19;9.10;;;3.10;;
66429;SDS011;53242;51.694;10.006;2022-10-31T00:34:41;9.95;;;3.20;;
66429;SDS011;53242;51.694;10.006;2022-10-31T00:37:05;11.68;;;3.45;;
66429;SDS011;53242;51.694;10.006;2022-10-31T00:39:27;10.05;;;3.22;;
66429;SDS011;53242;51.694;10.006;2022-10-31T00:41:50;12.05;;;3.72;;
66429;SDS011;53242;51.694;10.006;2022-10-31T00:44:12;7.95;;;3.35;;
66429;SDS011;53242;51.694;10.006;2022-10-31T00:46:34;10.82;;;4.07;;
66429;SDS011;53242;51.694;10.006;2022-10-31T00:48:57;12.15;;;3.03;;
66429;SDS011;53242;51.694;10.006;2022-10-31T00:51:19;10.73;;;3.45;;
66429;SDS011;53242;51.694;10.006;2022-10-31T00:53:42;7.65;;;2.90;;
66429;SDS011;53242;51.694;10.006;2022-10-31T00:56:05;6.85;;;2.90;;
66429;SDS011;53242;51.694;10.006;2022-10-31T00:58:28;9.25;;;3.08;;
66429;SDS011;53242;51.694;10.006;2022-10-31T01:00:51;9.82;;;3.80;;
66429;SDS011;53242;51.694;10.006;2022-10-31T01:03:16;13.25;;;3.22;;
66429;SDS011;53242;51.694;10.006;2022-10-31T01:05:39;11.18;;;3.60;;
66429;SDS011;53242;51.694;10.006;2022-10-31T01:08:01;8.30;;;3.10;;
66429;SDS011;53242;51.694;10.006;2022-10-31T01:10:24;11.10;;;3.58;;
66429;SDS011;53242;51.694;10.006;2022-10-31T01:12:48;13.00;;;3.60;;
66429;SDS011;53242;51.694;10.006;2022-10-31T01:15:11;8.38;;;3.20;;
66429;SDS011;53242;51.694;10.006;2022-10-31T01:17:37;9.13;;;3.75;;
66429;SDS011;53242;51.694;10.006;2022-10-31T01:20:00;9.38;;;3.40;;
66429;SDS011;53242;51.694;10.006;2022-10-31T01:22:23;7.47;;;2.95;;
66429;SDS011;53242;51.694;10.006;2022-10-31T01:24:46;9.18;;;3.15;;
66429;SDS011;53242;51.694;10.006;2022-10-31T01:27:08;10.52;;;2.92;;
66429;SDS011;53242;51.694;10.006;2022-10-31T01:29:31;10.60;;;3.45;;
66429;SDS011;53242;51.694;10.006;2022-10-31T01:31:54;10.63;;;3.40;;
66429;SDS011;53242;51.694;10.006;2022-10-31T01:34:17;11.45;;;3.40;;
66429;SDS011;53242;51.694;10.006;2022-10-31T01:36:39;8.60;;;3.42;;
66429;SDS011;53242;51.694;10.006;2022-10-31T01:39:07;15.60;;;3.72;;
66429;SDS011;53242;51.694;10.006;2022-10-31T01:41:36;11.05;;;3.53;;
66429;SDS011;53242;51.694;10.006;2022-10-31T01:44:44;10.90;;;2.97;;
66429;SDS011;53242;51.694;10.006;2022-10-31T01:46:50;8.68;;;3.00;;
66429;SDS011;53242;51.694;10.006;2022-10-31T01:49:13;9.85;;;3.60;;
66429;SDS011;53242;51.694;10.006;2022-10-31T01:52:14;12.45;;;3.72;;
66429;SDS011;53242;51.694;10.006;2022-10-31T01:54:36;9.63;;;3.40;;
66429;SDS011;53242;51.694;10.006;2022-10-31T01:57:01;11.73;;;3.75;;
66429;SDS011;53242;51.694;10.006;2022-10-31T01:59:27;12.52;;;4.15;;
66429;SDS011;53242;51.694;10.006;2022-10-31T02:01:53;13.52;;;3.92;;
66429;SDS011;53242;51.694;10.006;2022-10-31T02:04:16;9.00;;;3.33;;
66429;SDS011;53242;51.694;10.006;2022-10-31T02:06:46;10.38;;;3.40;;
66429;SDS011;53242;51.694;10.006;2022-10-31T02:09:14;12.23;;;3.58;;
66429;SDS011;53242;51.694;10.006;2022-10-31T02:11:38;11.93;;;3.40;;
66429;SDS011;53242;51.694;10.006;2022-10-31T02:14:02;9.93;;;4.03;;
66429;SDS011;53242;51.694;10.006;2022-10-31T02:16:25;10.23;;;3.60;;
66429;SDS011;53242;51.694;10.006;2022-10-31T02:18:48;11.05;;;3.72;;
66429;SDS011;53242;51.694;10.006;2022-10-31T02:21:15;12.73;;;3.47;;
66429;SDS011;53242;51.694;10.006;2022-10-31T02:26:41;10.73;;;3.67;;
66429;SDS011;53242;51.694;10.006;2022-10-31T02:29:20;10.50;;;3.35;;
66429;SDS011;53242;51.694;10.006;2022-10-31T02:32:25;10.32;;;3.75;;
66429;SDS011;53242;51.694;10.006;2022-10-31T02:34:59;12.18;;;3.72;;
66429;SDS011;53242;51.694;10.006;2022-10-31T02:37:32;10.50;;;4.43;;
66429;SDS011;53242;51.694;10.006;2022-10-31T02:40:12;12.43;;;4.22;;
66429;SDS011;53242;51.694;10.006;2022-10-31T02:43:40;11.20;;;3.63;;
66429;SDS011;53242;51.694;10.006;2022-10-31T02:46:19;7.65;;;3.63;;
66429;SDS011;53242;51.694;10.006;2022-10-31T02:48:55;10.55;;;3.80;;
66429;SDS011;53242;51.694;10.006;2022-10-31T02:51:23;10.57;;;4.32;;
66429;SDS011;53242;51.694;10.006;2022-10-31T02:53:45;12.68;;;3.97;;
66429;SDS011;53242;51.694;10.006;2022-10-31T02:58:42;12.57;;;3.53;;
66429;SDS011;53242;51.694;10.006;2022-10-31T03:14:59;11.70;;;3.90;;
66429;SDS011;53242;51.694;10.006;2022-10-31T03:17:50;9.60;;;3.78;;
66429;SDS011;53242;51.694;10.006;2022-10-31T03:20:22;12.57;;;4.55;;
66429;SDS011;53242;51.694;10.006;2022-10-31T03:22:50;10.52;;;4.00;;
66429;SDS011;53242;51.694;10.006;2022-10-31T03:25:16;10.60;;;3.67;;
66429;SDS011;53242;51.694;10.006;2022-10-31T03:27:39;15.10;;;4.00;;
66429;SDS011;53242;51.694;10.006;2022-10-31T03:30:05;10.27;;;3.60;;
66429;SDS011;53242;51.694;10.006;2022-10-31T03:32:41;12.07;;;3.55;;
66429;SDS011;53242;51.694;10.006;2022-10-31T03:35:08;9.10;;;3.50;;
66429;SDS011;53242;51.694;10.006;2022-10-31T03:37:33;12.45;;;4.03;;
66429;SDS011;53242;51.694;10.006;2022-10-31T03:39:58;11.48;;;4.65;;
66429;SDS011;53242;51.694;10.006;2022-10-31T03:42:24;14.52;;;4.38;;
66429;SDS011;53242;51.694;10.006;2022-10-31T03:47:15;13.35;;;3.80;;
66429;SDS011;53242;51.694;10.006;2022-10-31T03:49:38;11.73;;;4.20;;
66429;SDS011;53242;51.694;10.006;2022-10-31T03:54:37;10.20;;;3.92;;
66429;SDS011;53242;51.694;10.006;2022-10-31T03:59:53;12.43;;;4.38;;
66429;SDS011;53242;51.694;10.006;2022-10-31T04:02:22;10.02;;;4.05;;
66429;SDS011;53242;51.694;10.006;2022-10-31T04:04:49;12.45;;;4.22;;
66429;SDS011;53242;51.694;10.006;2022-10-31T04:07:13;12.38;;;4.25;;
66429;SDS011;53242;51.694;10.006;2022-10-31T04:09:37;13.02;;;3.80;;
66429;SDS011;53242;51.694;10.006;2022-10-31T04:12:03;11.15;;;3.83;;
66429;SDS011;53242;51.694;10.006;2022-10-31T04:14:45;13.30;;;4.22;;
66429;SDS011;53242;51.694;10.006;2022-10-31T04:17:11;11.80;;;3.90;;
66429;SDS011;53242;51.694;10.006;2022-10-31T04:19:38;11.43;;;3.85;;
66429;SDS011;53242;51.694;10.006;2022-10-31T04:22:01;13.13;;;3.88;;
66429;SDS011;53242;51.694;10.006;2022-10-31T04:24:23;13.70;;;4.25;;
66429;SDS011;53242;51.694;10.006;2022-10-31T04:26:45;12.70;;;4.45;;
66429;SDS011;53242;51.694;10.006;2022-10-31T04:29:09;12.13;;;4.30;;
66429;SDS011;53242;51.694;10.006;2022-10-31T04:31:31;9.98;;;4.70;;
66429;SDS011;53242;51.694;10.006;2022-10-31T04:33:53;12.70;;;4.68;;
66429;SDS011;53242;51.694;10.006;2022-10-31T04:36:16;10.52;;;4.30;;
66429;SDS011;53242;51.694;10.006;2022-10-31T04:38:38;9.70;;;4.13;;
66429;SDS011;53242;51.694;10.006;2022-10-31T04:41:09;13.75;;;4.38;;
66429;SDS011;53242;51.694;10.006;2022-10-31T04:43:48;11.57;;;4.60;;
66429;SDS011;53242;51.694;10.006;2022-10-31T04:46:10;13.38;;;4.50;;
66429;SDS011;53242;51.694;10.006;2022-10-31T04:48:33;12.93;;;4.55;;
66429;SDS011;53242;51.694;10.006;2022-10-31T04:51:02;11.65;;;4.43;;
66429;SDS011;53242;51.694;10.006;2022-10-31T04:53:24;10.80;;;4.63;;
66429;SDS011;53242;51.694;10.006;2022-10-31T04:56:16;10.10;;;4.30;;
66429;SDS011;53242;51.694;10.006;2022-10-31T04:58:42;11.50;;;4.10;;
66429;SDS011;53242;51.694;10.006;2022-10-31T05:01:05;9.40;;;3.85;;
66429;SDS011;53242;51.694;10.006;2022-10-31T05:03:29;15.00;;;4.60;;
66429;SDS011;53242;51.694;10.006;2022-10-31T05:05:51;15.38;;;4.72;;
66429;SDS011;53242;51.694;10.006;2022-10-31T05:08:14;11.32;;;4.22;;
66429;SDS011;53242;51.694;10.006;2022-10-31T05:10:36;11.90;;;4.15;;
66429;SDS011;53242;51.694;10.006;2022-10-31T05:13:00;14.98;;;4.65;;
66429;SDS011;53242;51.694;10.006;2022-10-31T05:15:29;12.90;;;4.32;;
66429;SDS011;53242;51.694;10.006;2022-10-31T05:18:11;15.50;;;4.85;;
66429;SDS011;53242;51.694;10.006;2022-10-31T05:20:52;13.55;;;4.50;;
66429;SDS011;53242;51.694;10.006;2022-10-31T05:23:21;11.98;;;4.20;;
66429;SDS011;53242;51.694;10.006;2022-10-31T05:25:44;10.55;;;4.43;;
66429;SDS011;53242;51.694;10.006;2022-10-31T05:28:07;13.10;;;4.18;;
66429;SDS011;53242;51.694;10.006;2022-10-31T05:30:30;10.52;;;4.03;;
66429;SDS011;53242;51.694;10.006;2022-10-31T05:32:54;12.02;;;4.18;;
66429;SDS011;53242;51.694;10.006;2022-10-31T05:35:35;16.77;;;4.18;;
66429;SDS011;53242;51.694;10.006;2022-10-31T05:38:23;8.90;;;3.83;;
66429;SDS011;53242;51.694;10.006;2022-10-31T05:40:46;17.05;;;4.72;;
66429;SDS011;53242;51.694;10.006;2022-10-31T05:43:08;22.33;;;5.30;;
66429;SDS011;53242;51.694;10.006;2022-10-31T05:45:31;14.15;;;4.43;;
66429;SDS011;53242;51.694;10.006;2022-10-31T05:47:58;11.60;;;4.47;;
66429;SDS011;53242;51.694;10.006;2022-10-31T05:50:56;11.27;;;4.22;;
66429;SDS011;53242;51.694;10.006;2022-10-31T05:53:21;12.68;;;4.47;;
66429;SDS011;53242;51.694;10.006;2022-10-31T05:55:43;12.93;;;4.45;;
66429;SDS011;53242;51.694;10.006;2022-10-31T05:58:12;11.02;;;3.95;;
66429;SDS011;53242;51.694;10.006;2022-10-31T06:00:38;11.88;;;4.93;;
66429;SDS011;53242;51.694;10.006;2022-10-31T06:03:05;12.98;;;4.75;;
66429;SDS011;53242;51.694;10.006;2022-10-31T06:05:42;11.50;;;4.88;;
66429;SDS011;53242;51.694;10.006;2022-10-31T06:08:04;12.90;;;4.57;;
66429;SDS011;53242;51.694;10.006;2022-10-31T06:10:27;13.57;;;4.43;;
66429;SDS011;53242;51.694;10.006;2022-10-31T06:12:51;11.02;;;4.30;;
66429;SDS011;53242;51.694;10.006;2022-10-31T06:15:26;13.45;;;4.97;;
66429;SDS011;53242;51.694;10.006;2022-10-31T06:18:03;16.42;;;5.05;;
66429;SDS011;53242;51.694;10.006;2022-10-31T06:20:32;14.63;;;5.32;;
66429;SDS011;53242;51.694;10.006;2022-10-31T06:22:59;15.90;;;4.93;;
66429;SDS011;53242;51.694;10.006;2022-10-31T06:25:22;15.85;;;5.53;;
66429;SDS011;53242;51.694;10.006;2022-10-31T06:27:45;10.68;;;4.55;;
66429;SDS011;53242;51.694;10.006;2022-10-31T06:30:10;10.88;;;4.25;;
66429;SDS011;53242;51.694;10.006;2022-10-31T06:32:33;11.60;;;4.10;;
66429;SDS011;53242;51.694;10.006;2022-10-31T06:34:55;13.70;;;4.88;;
66429;SDS011;53242;51.694;10.006;2022-10-31T06:37:19;14.10;;;5.47;;
66429;SDS011;53242;51.694;10.006;2022-10-31T06:39:44;12.88;;;4.78;;
66429;SDS011;53242;51.694;10.006;2022-10-31T06:42:09;15.77;;;5.00;;
66429;SDS011;53242;51.694;10.006;2022-10-31T06:44:31;10.68;;;4.10;;
66429;SDS011;53242;51.694;10.006;2022-10-31T06:47:22;12.57;;;4.93;;
66429;SDS011;53242;51.694;10.006;2022-10-31T06:49:55;14.45;;;4.70;;
66429;SDS011;53242;51.694;10.006;2022-10-31T06:52:19;12.98;;;4.45;;
66429;SDS011;53242;51.694;10.006;2022-10-31T06:54:42;11.27;;;4.35;;
66429;SDS011;53242;51.694;10.006;2022-10-31T06:57:04;15.68;;;4.57;;
66429;SDS011;53242;51.694;10.006;2022-10-31T06:59:27;11.25;;;4.32;;
66429;SDS011;53242;51.694;10.006;2022-10-31T07:02:08;12.50;;;4.63;;
66429;SDS011;53242;51.694;10.006;2022-10-31T07:04:32;14.35;;;5.22;;
66429;SDS011;53242;51.694;10.006;2022-10-31T07:06:54;19.00;;;5.90;;
66429;SDS011;53242;51.694;10.006;2022-10-31T07:09:17;17.92;;;5.72;;
66429;SDS011;53242;51.694;10.006;2022-10-31T07:11:39;13.23;;;4.68;;
66429;SDS011;53242;51.694;10.006;2022-10-31T07:14:02;13.07;;;5.10;;
66429;SDS011;53242;51.694;10.006;2022-10-31T07:16:24;13.98;;;4.55;;
66429;SDS011;53242;51.694;10.006;2022-10-31T07:18:47;12.00;;;5.18;;
66429;SDS011;53242;51.694;10.006;2022-10-31T07:21:10;10.93;;;4.97;;
66429;SDS011;53242;51.694;10.006;2022-10-31T07:23:33;15.13;;;5.32;;
66429;SDS011;53242;51.694;10.006;2022-10-31T07:26:15;14.40;;;4.65;;
66429;SDS011;53242;51.694;10.006;2022-10-31T07:28:41;11.65;;;4.53;;
66429;SDS011;53242;51.694;10.006;2022-10-31T07:31:04;11.40;;;4.30;;
66429;SDS011;53242;51.694;10.006;2022-10-31T07:33:26;16.75;;;4.95;;
66429;SDS011;53242;51.694;10.006;2022-10-31T07:36:25;13.05;;;4.85;;
66429;SDS011;53242;51.694;10.006;2022-10-31T07:38:49;17.17;;;5.82;;
66429;SDS011;53242;51.694;10.006;2022-10-31T07:41:11;21.55;;;9.40;;
66429;SDS011;53242;51.694;10.006;2022-10-31T07:43:38;21.50;;;9.57;;
66429;SDS011;53242;51.694;10.006;2022-10-31T07:46:12;20.77;;;8.40;;
66429;SDS011;53242;51.694;10.006;2022-10-31T07:48:53;24.20;;;7.43;;
66429;SDS011;53242;51.694;10.006;2022-10-31T07:51:34;14.50;;;6.20;;
66429;SDS011;53242;51.694;10.006;2022-10-31T07:54:15;17.70;;;7.68;;
66429;SDS011;53242;51.694;10.006;2022-10-31T07:56:38;18.58;;;7.53;;
66429;SDS011;53242;51.694;10.006;2022-10-31T07:59:01;17.00;;;6.47;;
66429;SDS011;53242;51.694;10.006;2022-10-31T08:01:25;15.30;;;6.00;;
66429;SDS011;53242;51.694;10.006;2022-10-31T08:04:07;14.48;;;6.38;;
66429;SDS011;53242;51.694;10.006;2022-10-31T08:06:48;16.20;;;7.57;;
66429;SDS011;53242;51.694;10.006;2022-10-31T08:11:48;15.73;;;6.28;;
66429;SDS011;53242;51.694;10.006;2022-10-31T08:14:12;15.40;;;6.05;;
66429;SDS011;53242;51.694;10.006;2022-10-31T08:16:34;11.52;;;5.22;;
66429;SDS011;53242;51.694;10.006;2022-10-31T08:18:59;14.48;;;5.85;;
66429;SDS011;53242;51.694;10.006;2022-10-31T08:21:24;13.15;;;5.80;;
66429;SDS011;53242;51.694;10.006;2022-10-31T08:23:46;16.05;;;5.65;;
66429;SDS011;53242;51.694;10.006;2022-10-31T08:26:10;14.35;;;5.40;;
66429;SDS011;53242;51.694;10.006;2022-10-31T08:28:33;14.30;;;5.90;;
66429;SDS011;53242;51.694;10.006;2022-10-31T08:30:56;15.95;;;5.53;;
66429;SDS011;53242;51.694;10.006;2022-10-31T08:33:35;16.33;;;5.70;;
66429;SDS011;53242;51.694;10.006;2022-10-31T08:36:12;12.82;;;6.18;;
66429;SDS011;53242;51.694;10.006;2022-10-31T08:38:44;11.52;;;5.32;;
66429;SDS011;53242;51.694;10.006;2022-10-31T08:41:08;15.15;;;5.72;;
66429;SDS011;53242;51.694;10.006;2022-10-31T08:43:31;11.10;;;4.90;;
66429;SDS011;53242;51.694;10.006;2022-10-31T08:45:53;12.70;;;5.22;;
66429;SDS011;53242;51.694;10.006;2022-10-31T08:48:22;15.77;;;5.25;;
66429;SDS011;53242;51.694;10.006;2022-10-31T08:50:45;16.42;;;5.03;;
66429;SDS011;53242;51.694;10.006;2022-10-31T08:53:12;14.50;;;5.28;;
66429;SDS011;53242;51.694;10.006;2022-10-31T08:55:47;12.88;;;5.97;;
66429;SDS011;53242;51.694;10.006;2022-10-31T08:58:21;16.17;;;6.03;;
66429;SDS011;53242;51.694;10.006;2022-10-31T09:00:48;16.10;;;6.38;;
66429;SDS011;53242;51.694;10.006;2022-10-31T09:05:46;15.38;;;5.82;;
66429;SDS011;53242;51.694;10.006;2022-10-31T09:08:09;13.70;;;5.07;;
66429;SDS011;53242;51.694;10.006;2022-10-31T09:10:33;12.85;;;5.53;;
66429;SDS011;53242;51.694;10.006;2022-10-31T09:12:59;16.45;;;5.75;;
66429;SDS011;53242;51.694;10.006;2022-10-31T09:16:04;13.60;;;5.30;;
66429;SDS011;53242;51.694;10.006;2022-10-31T09:18:27;16.33;;;6.43;;
66429;SDS011;53242;51.694;10.006;2022-10-31T09:20:53;13.40;;;5.65;;
66429;SDS011;53242;51.694;10.006;2022-10-31T09:25:41;17.63;;;5.47;;
66429;SDS011;53242;51.694;10.006;2022-10-31T09:28:23;15.50;;;5.75;;
66429;SDS011;53242;51.694;10.006;2022-10-31T09:30:46;13.93;;;5.78;;
66429;SDS011;53242;51.694;10.006;2022-10-31T09:33:14;15.07;;;6.47;;
66429;SDS011;53242;51.694;10.006;2022-10-31T09:35:43;15.65;;;6.22;;
66429;SDS011;53242;51.694;10.006;2022-10-31T09:38:07;17.08;;;5.63;;
66429;SDS011;53242;51.694;10.006;2022-10-31T09:40:39;17.08;;;6.03;;
66429;SDS011;53242;51.694;10.006;2022-10-31T09:45:44;14.30;;;5.45;;
66429;SDS011;53242;51.694;10.006;2022-10-31T09:51:35;15.30;;;5.70;;
66429;SDS011;53242;51.694;10.006;2022-10-31T09:54:18;15.02;;;5.50;;
66429;SDS011;53242;51.694;10.006;2022-10-31T09:56:47;17.10;;;6.05;;
66429;SDS011;53242;51.694;10.006;2022-10-31T09:59:19;16.65;;;6.15;;
66429;SDS011;53242;51.694;10.006;2022-10-31T10:01:54;16.17;;;6.80;;
66429;SDS011;53242;51.694;10.006;2022-10-31T10:07:13;15.82;;;6.13;;
66429;SDS011;53242;51.694;10.006;2022-10-31T10:10:27;20.50;;;5.65;;
66429;SDS011;53242;51.694;10.006;2022-10-31T10:30:07;20.75;;;6.30;;
66429;SDS011;53242;51.694;10.006;2022-10-31T10:32:43;16.92;;;6.70;;
66429;SDS011;53242;51.694;10.006;2022-10-31T10:37:38;17.38;;;5.95;;
66429;SDS011;53242;51.694;10.006;2022-10-31T10:40:13;14.02;;;5.75;;
66429;SDS011;53242;51.694;10.006;2022-10-31T10:42:39;17.90;;;5.90;;
66429;SDS011;53242;51.694;10.006;2022-10-31T10:45:20;16.77;;;6.47;;
66429;SDS011;53242;51.694;10.006;2022-10-31T10:50:47;17.33;;;6.47;;
66429;SDS011;53242;51.694;10.006;2022-10-31T10:58:42;17.00;;;5.85;;
66429;SDS011;53242;51.694;10.006;2022-10-31T11:01:09;14.38;;;6.13;;
66429;SDS011;53242;51.694;10.006;2022-10-31T11:03:33;18.10;;;5.90;;
66429;SDS011;53242;51.694;10.006;2022-10-31T11:05:57;16.13;;;6.00;;
66429;SDS011;53242;51.694;10.006;2022-10-31T11:08:24;15.07;;;6.20;;
66429;SDS011;53242;51.694;10.006;2022-10-31T11:16:06;15.45;;;6.07;;
66429;SDS011;53242;51.694;10.006;2022-10-31T11:18:32;14.75;;;5.80;;
66429;SDS011;53242;51.694;10.006;2022-10-31T11:21:00;19.38;;;7.78;;
66429;SDS011;53242;51.694;10.006;2022-10-31T11:23:26;18.13;;;6.45;;
66429;SDS011;53242;51.694;10.006;2022-10-31T11:25:51;19.60;;;6.32;;
66429;SDS011;53242;51.694;10.006;2022-10-31T11:28:17;22.63;;;7.50;;
66429;SDS011;53242;51.694;10.006;2022-10-31T11:30:47;20.15;;;6.90;;
66429;SDS011;53242;51.694;10.006;2022-10-31T11:33:31;17.05;;;5.85;;
66429;SDS011;53242;51.694;10.006;2022-10-31T11:35:57;24.48;;;7.30;;
66429;SDS011;53242;51.694;10.006;2022-10-31T11:41:20;17.27;;;6.15;;
66429;SDS011;53242;51.694;10.006;2022-10-31T11:43:36;18.85;;;6.40;;
66429;SDS011;53242;51.694;10.006;2022-10-31T11:46:07;19.98;;;6.88;;
66429;SDS011;53242;51.694;10.006;2022-10-31T11:48:31;23.33;;;8.10;;
66429;SDS011;53242;51.694;10.006;2022-10-31T11:50:55;23.80;;;8.18;;
66429;SDS011;53242;51.694;10.006;2022-10-31T11:53:34;21.25;;;7.65;;
66429;SDS011;53242;51.694;10.006;2022-10-31T11:56:13;28.20;;;8.27;;
66429;SDS011;53242;51.694;10.006;2022-10-31T11:58:37;25.65;;;8.00;;
66429;SDS011;53242;51.694;10.006;2022-10-31T12:00:59;29.80;;;9.77;;
66429;SDS011;53242;51.694;10.006;2022-10-31T12:05:44;27.02;;;8.48;;
66429;SDS011;53242;51.694;10.006;2022-10-31T12:08:09;19.17;;;7.40;;
66429;SDS011;53242;51.694;10.006;2022-10-31T12:10:38;22.65;;;7.90;;
66429;SDS011;53242;51.694;10.006;2022-10-31T12:16:25;21.17;;;7.80;;
66429;SDS011;53242;51.694;10.006;2022-10-31T12:19:14;19.25;;;7.07;;
66429;SDS011;53242;51.694;10.006;2022-10-31T12:22:05;22.27;;;6.90;;
66429;SDS011;53242;51.694;10.006;2022-10-31T12:32:28;19.67;;;7.50;;
66429;SDS011;53242;51.694;10.006;2022-10-31T12:35:08;20.45;;;7.32;;
66429;SDS011;53242;51.694;10.006;2022-10-31T12:37:49;21.77;;;7.65;;
66429;SDS011;53242;51.694;10.006;2022-10-31T12:43:23;22.98;;;7.28;;
66429;SDS011;53242;51.694;10.006;2022-10-31T12:45:57;21.63;;;7.15;;
66429;SDS011;53242;51.694;10.006;2022-10-31T12:53:35;20.65;;;7.03;;
66429;SDS011;53242;51.694;10.006;2022-10-31T12:56:16;21.75;;;7.22;;
66429;SDS011;53242;51.694;10.006;2022-10-31T12:58:55;25.17;;;7.22;;
66429;SDS011;53242;51.694;10.006;2022-10-31T13:01:23;20.30;;;7.30;;
66429;SDS011;53242;51.694;10.006;2022-10-31T13:04:02;20.73;;;6.90;;
66429;SDS011;53242;51.694;10.006;2022-10-31T13:06:38;21.60;;;7.60;;
66429;SDS011;53242;51.694;10.006;2022-10-31T13:09:08;20.52;;;7.45;;
66429;SDS011;53242;51.694;10.006;2022-10-31T13:11:37;19.05;;;6.95;;
66429;SDS011;53242;51.694;10.006;2022-10-31T13:14:21;19.73;;;7.20;;
66429;SDS011;53242;51.694;10.006;2022-10-31T13:16:48;19.00;;;6.75;;
66429;SDS011;53242;51.694;10.006;2022-10-31T13:19:16;27.63;;;7.00;;
66429;SDS011;53242;51.694;10.006;2022-10-31T13:21:42;19.30;;;7.30;;
66429;SDS011;53242;51.694;10.006;2022-10-31T13:24:35;23.00;;;7.28;;
66429;SDS011;53242;51.694;10.006;2022-10-31T13:27:02;22.30;;;7.70;;
66429;SDS011;53242;51.694;10.006;2022-10-31T13:29:33;20.33;;;7.00;;
66429;SDS011;53242;51.694;10.006;2022-10-31T13:32:04;20.45;;;7.70;;
66429;SDS011;53242;51.694;10.006;2022-10-31T13:34:36;24.45;;;7.90;;
66429;SDS011;53242;51.694;10.006;2022-10-31T13:39:34;20.75;;;7.50;;
66429;SDS011;53242;51.694;10.006;2022-10-31T13:45:15;21.40;;;8.02;;
66429;SDS011;53242;51.694;10.006;2022-10-31T13:47:42;18.88;;;6.57;;
66429;SDS011;53242;51.694;10.006;2022-10-31T13:50:20;20.83;;;7.40;;
66429;SDS011;53242;51.694;10.006;2022-10-31T13:52:45;19.73;;;6.32;;
66429;SDS011;53242;51.694;10.006;2022-10-31T13:55:33;21.25;;;7.53;;
66429;SDS011;53242;51.694;10.006;2022-10-31T13:58:03;20.02;;;7.22;;
66429;SDS011;53242;51.694;10.006;2022-10-31T14:00:57;22.98;;;7.55;;
66429;SDS011;53242;51.694;10.006;2022-10-31T14:03:25;20.98;;;7.38;;
66429;SDS011;53242;51.694;10.006;2022-10-31T14:05:53;18.77;;;6.85;;
66429;SDS011;53242;51.694;10.006;2022-10-31T14:08:18;21.95;;;7.13;;
66429;SDS011;53242;51.694;10.006;2022-10-31T14:10:48;23.17;;;7.55;;
66429;SDS011;53242;51.694;10.006;2022-10-31T14:15:57;21.63;;;7.00;;
66429;SDS011;53242;51.694;10.006;2022-10-31T14:18:23;22.00;;;7.15;;
66429;SDS011;53242;51.694;10.006;2022-10-31T14:20:50;18.73;;;6.97;;
66429;SDS011;53242;51.694;10.006;2022-10-31T14:26:07;23.70;;;7.57;;
66429;SDS011;53242;51.694;10.006;2022-10-31T14:28:53;20.27;;;7.15;;
66429;SDS011;53242;51.694;10.006;2022-10-31T14:31:26;16.65;;;6.95;;
66429;SDS011;53242;51.694;10.006;2022-10-31T14:33:54;19.73;;;6.85;;
66429;SDS011;53242;51.694;10.006;2022-10-31T14:36:23;19.00;;;6.05;;
66429;SDS011;53242;51.694;10.006;2022-10-31T14:41:41;16.58;;;6.32;;
66429;SDS011;53242;51.694;10.006;2022-10-31T14:46:59;19.35;;;7.10;;
66429;SDS011;53242;51.694;10.006;2022-10-31T14:52:22;21.70;;;7.18;;
66429;SDS011;53242;51.694;10.006;2022-10-31T14:54:46;21.33;;;7.10;;
66429;SDS011;53242;51.694;10.006;2022-10-31T14:57:22;19.48;;;6.05;;
66429;SDS011;53242;51.694;10.006;2022-10-31T14:59:50;20.33;;;6.35;;
66429;SDS011;53242;51.694;10.006;2022-10-31T15:02:22;16.17;;;6.35;;
66429;SDS011;53242;51.694;10.006;2022-10-31T15:04:48;17.52;;;6.53;;
66429;SDS011;53242;51.694;10.006;2022-10-31T15:07:15;19.58;;;6.82;;
66429;SDS011;53242;51.694;10.006;2022-10-31T15:09:41;19.58;;;6.20;;
66429;SDS011;53242;51.694;10.006;2022-10-31T15:15:13;17.08;;;6.13;;
66429;SDS011;53242;51.694;10.006;2022-10-31T15:17:43;17.83;;;6.32;;
66429;SDS011;53242;51.694;10.006;2022-10-31T15:20:09;20.27;;;6.15;;
66429;SDS011;53242;51.694;10.006;2022-10-31T15:22:39;12.80;;;5.55;;
66429;SDS011;53242;51.694;10.006;2022-10-31T15:25:01;17.42;;;6.65;;
66429;SDS011;53242;51.694;10.006;2022-10-31T15:27:24;17.55;;;6.20;;
66429;SDS011;53242;51.694;10.006;2022-10-31T15:29:47;16.83;;;6.82;;
66429;SDS011;53242;51.694;10.006;2022-10-31T15:32:18;21.13;;;7.15;;
66429;SDS011;53242;51.694;10.006;2022-10-31T15:34:44;22.92;;;7.32;;
66429;SDS011;53242;51.694;10.006;2022-10-31T15:37:13;21.67;;;7.30;;
66429;SDS011;53242;51.694;10.006;2022-10-31T15:39:37;19.77;;;7.22;;
66429;SDS011;53242;51.694;10.006;2022-10-31T15:41:59;21.42;;;7.03;;
66429;SDS011;53242;51.694;10.006;2022-10-31T15:44:27;20.33;;;6.38;;
66429;SDS011;53242;51.694;10.006;2022-10-31T15:47:05;19.65;;;6.45;;
66429;SDS011;53242;51.694;10.006;2022-10-31T15:49:37;17.90;;;6.80;;
66429;SDS011;53242;51.694;10.006;2022-10-31T15:52:04;16.75;;;5.90;;
66429;SDS011;53242;51.694;10.006;2022-10-31T15:54:29;14.95;;;5.97;;
66429;SDS011;53242;51.694;10.006;2022-10-31T15:56:52;19.17;;;6.00;;
66429;SDS011;53242;51.694;10.006;2022-10-31T15:59:25;15.77;;;5.95;;
66429;SDS011;53242;51.694;10.006;2022-10-31T16:02:09;15.60;;;6.03;;
66429;SDS011;53242;51.694;10.006;2022-10-31T16:04:34;19.80;;;6.78;;
66429;SDS011;53242;51.694;10.006;2022-10-31T16:07:00;16.63;;;6.53;;
66429;SDS011;53242;51.694;10.006;2022-10-31T16:09:33;21.27;;;6.40;;
66429;SDS011;53242;51.694;10.006;2022-10-31T16:11:56;20.65;;;6.88;;
66429;SDS011;53242;51.694;10.006;2022-10-31T16:14:26;21.45;;;7.25;;
66429;SDS011;53242;51.694;10.006;2022-10-31T16:19:27;19.23;;;7.13;;
66429;SDS011;53242;51.694;10.006;2022-10-31T16:21:54;18.25;;;6.32;;
66429;SDS011;53242;51.694;10.006;2022-10-31T16:24:30;17.85;;;6.15;;
66429;SDS011;53242;51.694;10.006;2022-10-31T16:26:59;19.88;;;6.57;;
66429;SDS011;53242;51.694;10.006;2022-10-31T16:29:32;21.80;;;8.15;;
66429;SDS011;53242;51.694;10.006;2022-10-31T16:31:57;18.88;;;6.68;;
66429;SDS011;53242;51.694;10.006;2022-10-31T16:34:20;16.80;;;6.60;;
66429;SDS011;53242;51.694;10.006;2022-10-31T16:36:44;17.88;;;6.72;;
66429;SDS011;53242;51.694;10.006;2022-10-31T16:39:06;18.92;;;6.88;;